Date,TemperatureHighF,TemperatureAvgF,TemperatureLowF,DewpointHighF,DewpointAvgF,DewpointLowF,HumidityHigh,HumidityAvg,HumidityLow,PressureMaxIn,PressureMinIn,WindSpeedMaxMPH,WindSpeedAvgMPH,GustSpeedMaxMPH,PrecipitationSumIn
2013-2-1,52,37,28,-100,-100,-100,0,0,100,0.00,40.00,0,-999,0,0.00
2013-2-2,49,36,24,-100,-100,-100,0,0,100,0.00,40.00,0,-999,0,0.00
2013-2-3,53,42,32,-100,-100,-100,0,0,100,0.00,40.00,0,-999,0,0.00
2013-2-4,52,41,33,-100,-100,-100,0,0,100,0.00,40.00,0,-999,0,0.00
2013-2-5,43,38,32,-100,-100,-100,0,0,100,0.00,40.00,0,-999,0,0.00
2013-2-6,46,37,31,-100,-100,-100,0,0,100,0.00,40.00,0,-999,0,0.00
2013-2-7,40,33,23,-100,-100,-100,0,0,100,0.00,40.00,0,-999,0,0.01
2013-2-8,38,27,16,-100,-100,-100,0,0,100,0.00,40.00,0,-999,0,0.01
2013-2-9,40,29,19,-100,-100,-100,0,0,100,0.00,40.00,0,-999,0,0.00
2013-2-10,44,32,21,-100,-100,-100,0,0,100,0.00,40.00,0,-999,0,0.00
2013-2-11,43,32,20,-100,-100,-100,0,0,100,0.00,40.00,0,-999,0,0.00
2013-2-12,45,34,24,-100,-100,-100,0,0,100,0.00,40.00,0,-999,0,0.00
2013-2-13,43,36,31,-100,-100,-100,0,0,100,0.00,40.00,0,-999,0,0.00
2013-2-14,50,36,25,-100,-100,-100,0,0,100,0.00,40.00,0,-999,0,0.00
2013-2-15,58,42,27,-100,-100,-100,0,0,100,0.00,40.00,0,-999,0,0.00
2013-2-16,49,40,25,-100,-100,-100,0,0,100,0.00,40.00,0,-999,0,0.01
2013-2-17,42,29,19,-100,-100,-100,0,0,100,0.00,40.00,0,-999,0,0.01
2013-2-18,39,31,23,-100,-100,-100,0,0,100,0.00,40.00,0,-999,0,0.00
2013-2-19,38,30,18,-100,-100,-100,0,0,100,0.00,40.00,0,-999,0,0.00
2013-2-20,38,30,19,-100,-100,-100,0,0,100,0.00,40.00,0,-999,0,0.00
2013-2-21,35,32,27,-100,-100,-100,0,0,100,0.00,40.00,0,-999,0,0.00
2013-2-22,41,35,29,-100,-100,-100,0,0,100,0.00,40.00,0,-999,0,0.00
2013-2-23,36,28,17,-100,-100,-100,0,0,100,0.00,40.00,0,-999,0,0.00
2013-2-24,47,32,20,-100,-100,-100,0,0,100,0.00,40.00,0,-999,0,0.01
2013-2-25,39,33,23,-100,-100,-100,0,0,100,0.00,40.00,0,-999,0,0.00
2013-2-26,46,31,16,-100,-100,-100,0,0,100,0.00,40.00,0,-999,0,0.00
2013-2-27,46,39,27,-100,-100,-100,0,0,100,0.00,40.00,0,-999,0,0.00
2013-2-28,51,45,40,-100,-100,-100,0,0,100,0.00,40.00,0,-999,0,0.00